Time;durP1;ratioP1;P1;durP2;ratioP2;P2;SDS_P1;SDS_P2;PMS_P1;PMS_P2;Temp;Humidity;BMP_temperature;BMP_pressure;BME280_temperature;BME280_humidity;BME280_pressure;Samples;Min_cycle;Max_cycle;Signal;HPM_P1;HPM_P2
2022/10/17 00:01:01;;;;;;;7.90;3.80;;;10.00;99.90;;;;;;4214064;28;20183;-70
2022/10/17 00:03:01;;;;;;;4.73;3.47;;;10.00;99.90;;;;;;4214673;28;20270;-70
2022/10/17 00:05:02;;;;;;;5.67;3.50;;;10.00;99.90;;;;;;4214496;28;20183;-70
2022/10/17 00:07:03;;;;;;;5.37;3.50;;;10.00;99.90;;;;;;4198702;28;20192;-70
2022/10/17 00:09:03;;;;;;;7.03;3.77;;;10.00;99.90;;;;;;4180880;28;20192;-70
2022/10/17 00:11:11;;;;;;;4.50;3.63;;;10.00;99.90;;;;;;4180437;28;20250;-70
2022/10/17 00:13:12;;;;;;;6.40;3.87;;;9.90;99.90;;;;;;4180719;28;20855;-70
2022/10/17 00:15:18;;;;;;;6.57;3.70;;;9.90;99.90;;;;;;4180834;28;20230;-70
2022/10/17 00:17:19;;;;;;;21.80;6.47;;;9.90;99.90;;;;;;4181079;28;20188;-70
2022/10/17 00:19:19;;;;;;;11.63;4.43;;;9.90;99.90;;;;;;4180211;28;20183;-70
2022/10/17 00:21:21;;;;;;;8.33;4.17;;;9.90;99.90;;;;;;4180242;28;20180;-70
2022/10/17 00:23:21;;;;;;;4.80;4.10;;;9.80;99.90;;;;;;4180914;28;20187;-70
2022/10/17 00:25:22;;;;;;;5.40;3.73;;;9.90;99.90;;;;;;4180739;28;20737;-70
2022/10/17 00:27:22;;;;;;;7.33;4.30;;;9.90;99.90;;;;;;4181042;28;20192;-70
2022/10/17 00:29:23;;;;;;;7.67;4.27;;;9.80;99.90;;;;;;4180790;28;20188;-69
2022/10/17 00:31:24;;;;;;;6.17;4.07;;;9.80;99.90;;;;;;4180088;28;20196;-69
2022/10/17 00:33:26;;;;;;;7.97;4.13;;;9.80;99.90;;;;;;4180788;28;20283;-69
2022/10/17 00:35:26;;;;;;;6.63;4.73;;;9.80;99.90;;;;;;4180496;28;20234;-69
2022/10/17 00:37:29;;;;;;;6.23;3.97;;;9.80;99.90;;;;;;4180514;28;20173;-69
2022/10/17 00:39:29;;;;;;;6.83;4.70;;;9.80;99.90;;;;;;4180682;28;20199;-69
2022/10/17 00:41:32;;;;;;;6.30;4.43;;;9.70;99.90;;;;;;4179777;28;20640;-69
2022/10/17 00:43:56;;;;;;;7.23;4.20;;;9.70;99.90;;;;;;4180471;28;20644;-69
2022/10/17 00:45:56;;;;;;;4.17;3.40;;;9.80;99.90;;;;;;4180742;28;20281;-69
2022/10/17 00:48:04;;;;;;;8.13;3.70;;;9.70;99.90;;;;;;4180798;28;20651;-69
2022/10/17 00:50:06;;;;;;;5.80;4.03;;;9.80;99.90;;;;;;4196336;28;20199;-69
2022/10/17 00:52:18;;;;;;;6.33;3.80;;;9.80;99.90;;;;;;4196200;28;20613;-69
2022/10/17 00:54:24;;;;;;;7.33;3.60;;;9.80;99.90;;;;;;4196847;28;20203;-69
2022/10/17 00:56:25;;;;;;;4.80;3.70;;;9.80;99.90;;;;;;4196775;28;20241;-69
2022/10/17 00:58:26;;;;;;;7.63;3.43;;;9.80;99.90;;;;;;4196682;28;20214;-69
2022/10/17 01:00:26;;;;;;;5.37;3.90;;;9.70;99.90;;;;;;4194708;28;20180;-69
2022/10/17 01:02:27;;;;;;;8.87;3.47;;;9.60;99.90;;;;;;4196681;28;20188;-69
2022/10/17 01:04:27;;;;;;;4.40;3.30;;;9.60;99.90;;;;;;4196642;28;20188;-69
2022/10/17 01:06:28;;;;;;;5.03;3.20;;;9.50;99.90;;;;;;4196397;28;20265;-69
2022/10/17 01:08:29;;;;;;;4.43;3.63;;;9.50;99.90;;;;;;4196684;28;20662;-69
2022/10/17 01:10:49;;;;;;;4.80;3.17;;;9.50;99.90;;;;;;4195956;28;20190;-69
2022/10/17 01:13:14;;;;;;;5.43;3.37;;;9.50;99.90;;;;;;4196296;28;20191;-69
2022/10/17 01:15:26;;;;;;;4.60;2.87;;;9.50;99.90;;;;;;4196282;28;20769;-69
2022/10/17 01:17:36;;;;;;;3.90;3.03;;;9.50;99.90;;;;;;4196603;28;20592;-70
2022/10/17 01:19:43;;;;;;;4.53;3.27;;;9.50;99.90;;;;;;4196559;28;20179;-69
2022/10/17 01:22:04;;;;;;;5.43;3.10;;;9.50;99.90;;;;;;4196056;28;20179;-69
2022/10/17 01:24:31;;;;;;;9.63;2.80;;;9.50;99.90;;;;;;4196768;28;20172;-69
2022/10/17 01:26:49;;;;;;;3.63;2.90;;;9.40;99.90;;;;;;4196639;28;20195;-69
2022/10/17 01:29:31;;;;;;;3.73;2.80;;;9.40;99.90;;;;;;4196245;28;20163;-69
2022/10/17 01:31:37;;;;;;;5.97;3.60;;;9.40;99.90;;;;;;4194657;28;20208;-69
2022/10/17 01:34:11;;;;;;;4.90;3.43;;;9.30;99.90;;;;;;4196319;28;20170;-69
2022/10/17 01:36:23;;;;;;;6.50;3.40;;;9.40;99.90;;;;;;4196211;28;20208;-70
2022/10/17 01:38:33;;;;;;;5.67;3.50;;;9.40;99.90;;;;;;4195914;28;20202;-69
2022/10/17 01:40:40;;;;;;;5.57;3.20;;;9.40;99.90;;;;;;4195564;28;20178;-69
2022/10/17 01:42:50;;;;;;;4.10;2.87;;;9.40;99.90;;;;;;4195881;28;20240;-69
2022/10/17 01:45:10;;;;;;;6.87;3.80;;;9.50;99.90;;;;;;4196005;28;20914;-69
2022/10/17 01:47:17;;;;;;;5.67;3.83;;;9.50;99.90;;;;;;4195876;28;20602;-69
2022/10/17 01:49:23;;;;;;;4.30;3.47;;;9.60;99.90;;;;;;4195888;28;20290;-70
2022/10/17 01:51:51;;;;;;;4.50;3.27;;;9.60;99.90;;;;;;4193817;28;20175;-69
2022/10/17 01:53:57;;;;;;;6.67;3.67;;;9.60;99.90;;;;;;4195402;28;20196;-69
2022/10/17 01:56:01;;;;;;;7.37;3.60;;;9.50;99.90;;;;;;4195820;28;20227;-69
2022/10/17 01:58:20;;;;;;;5.70;3.50;;;9.50;99.90;;;;;;4195550;28;20195;-69
2022/10/17 02:00:24;;;;;;;5.73;3.67;;;9.50;99.90;;;;;;4195080;28;20233;-69
2022/10/17 02:02:25;;;;;;;7.80;3.83;;;9.50;99.90;;;;;;4195641;28;20183;-69
2022/10/17 02:04:27;;;;;;;4.57;3.10;;;9.40;99.90;;;;;;4195724;28;20194;-70
2022/10/17 02:06:27;;;;;;;5.90;3.33;;;9.40;99.90;;;;;;4195770;28;20203;-69
2022/10/17 02:08:40;;;;;;;6.10;3.50;;;9.40;99.90;;;;;;4194065;28;20218;-70
2022/10/17 02:10:52;;;;;;;4.43;3.20;;;9.40;99.90;;;;;;4194617;28;20190;-69
2022/10/17 02:13:05;;;;;;;4.93;3.37;;;9.30;99.90;;;;;;4195532;28;20198;-69
2022/10/17 02:15:33;;;;;;;4.53;3.77;;;9.30;99.90;;;;;;4195614;28;20293;-69
2022/10/17 02:18:00;;;;;;;8.23;3.50;;;9.30;99.90;;;;;;4195748;28;20179;-69
2022/10/17 02:20:22;;;;;;;7.93;3.33;;;9.30;99.90;;;;;;4195505;28;20198;-69
2022/10/17 02:22:37;;;;;;;6.20;3.77;;;9.30;99.90;;;;;;4195696;28;20194;-69
2022/10/17 02:24:58;;;;;;;7.13;3.60;;;9.40;99.90;;;;;;4195694;28;20706;-69
2022/10/17 02:27:19;;;;;;;4.93;3.70;;;9.50;99.90;;;;;;4195709;28;20168;-69
2022/10/17 02:29:33;;;;;;;5.53;3.53;;;9.50;99.90;;;;;;4195445;28;20172;-69
2022/10/17 02:31:40;;;;;;;6.13;3.37;;;9.50;99.90;;;;;;4194722;28;20290;-69
2022/10/17 02:33:47;;;;;;;4.97;3.30;;;9.60;99.90;;;;;;4195408;28;20676;-69
2022/10/17 02:35:53;;;;;;;6.57;4.07;;;9.50;99.90;;;;;;4195719;28;20226;-69
2022/10/17 02:37:55;;;;;;;6.60;2.93;;;9.50;99.90;;;;;;4195297;28;20191;-69
2022/10/17 02:39:58;;;;;;;6.07;3.40;;;9.40;99.90;;;;;;4195236;28;20183;-69
2022/10/17 02:42:02;;;;;;;4.23;3.13;;;9.40;99.90;;;;;;4194781;28;20650;-70
2022/10/17 02:44:05;;;;;;;5.40;3.70;;;9.40;99.90;;;;;;4198668;28;20249;-69
2022/10/17 02:46:07;;;;;;;7.33;3.70;;;9.40;99.90;;;;;;4198695;28;20203;-69
2022/10/17 02:48:33;;;;;;;6.73;3.70;;;9.30;99.90;;;;;;4198579;28;20194;-69
2022/10/17 02:51:19;;;;;;;7.97;3.57;;;9.40;99.90;;;;;;4197889;28;20226;-69
2022/10/17 02:53:29;;;;;;;5.13;3.07;;;9.40;99.90;;;;;;4197886;28;20255;-69
2022/10/17 02:55:33;;;;;;;4.63;3.50;;;9.30;99.90;;;;;;4198700;28;20295;-69
2022/10/17 02:57:41;;;;;;;5.93;4.00;;;9.30;99.90;;;;;;4193059;28;20198;-69
2022/10/17 02:59:44;;;;;;;6.70;3.70;;;9.30;99.90;;;;;;4198247;28;20203;-70
2022/10/17 03:01:45;;;;;;;6.00;3.70;;;9.30;99.90;;;;;;4198129;28;20191;-70
2022/10/17 03:03:45;;;;;;;4.47;3.17;;;9.20;99.90;;;;;;4198415;28;20179;-70
2022/10/17 03:05:46;;;;;;;4.43;2.80;;;9.20;99.90;;;;;;4198300;28;20203;-70
2022/10/17 03:07:46;;;;;;;5.93;3.13;;;9.10;99.90;;;;;;4198476;28;21015;-68
2022/10/17 03:09:47;;;;;;;3.57;3.03;;;9.00;99.90;;;;;;4196967;28;20195;-69
2022/10/17 03:11:47;;;;;;;6.97;3.70;;;9.00;99.90;;;;;;4197576;28;20649;-69
2022/10/17 03:13:48;;;;;;;6.87;3.80;;;9.10;99.90;;;;;;4196813;28;20202;-69
2022/10/17 03:15:48;;;;;;;4.63;3.40;;;9.20;99.90;;;;;;4197886;28;20310;-70
2022/10/17 03:17:49;;;;;;;5.00;3.50;;;9.30;99.90;;;;;;4198281;28;20186;-70
2022/10/17 03:19:50;;;;;;;6.10;3.77;;;9.30;99.90;;;;;;4198026;28;20207;-69
2022/10/17 03:21:50;;;;;;;9.10;4.07;;;9.30;99.90;;;;;;4197465;28;20198;-69
2022/10/17 03:23:51;;;;;;;7.00;3.90;;;9.30;99.90;;;;;;4197989;28;20198;-70
2022/10/17 03:25:51;;;;;;;6.00;3.83;;;9.30;99.90;;;;;;4197836;28;20210;-69
2022/10/17 03:27:52;;;;;;;6.10;4.10;;;9.30;99.90;;;;;;4198127;28;20186;-69
2022/10/17 03:29:52;;;;;;;6.33;3.97;;;9.40;99.90;;;;;;4198097;28;20210;-69
2022/10/17 03:31:53;;;;;;;6.77;3.90;;;9.40;99.90;;;;;;4197554;28;20198;-70
2022/10/17 03:33:54;;;;;;;16.57;4.20;;;9.30;99.90;;;;;;4197972;28;20187;-70
2022/10/17 03:35:54;;;;;;;5.13;3.20;;;9.30;99.90;;;;;;4197786;28;20232;-69
2022/10/17 03:37:55;;;;;;;6.17;3.37;;;9.20;99.90;;;;;;4198126;28;20190;-69
2022/10/17 03:39:56;;;;;;;6.20;3.63;;;9.10;99.90;;;;;;4197774;28;20266;-69
2022/10/17 03:41:56;;;;;;;11.33;5.07;;;9.10;99.90;;;;;;4196757;28;20333;-69
2022/10/17 03:43:57;;;;;;;5.87;3.73;;;9.10;99.90;;;;;;4197756;28;20526;-69
2022/10/17 03:45:58;;;;;;;7.77;4.03;;;9.10;99.90;;;;;;4197822;28;20225;-69
2022/10/17 03:47:59;;;;;;;4.13;3.10;;;9.10;99.90;;;;;;4197852;28;20190;-69
2022/10/17 03:49:59;;;;;;;8.90;3.40;;;9.00;99.90;;;;;;4197780;28;20184;-69
2022/10/17 03:52:00;;;;;;;6.10;3.80;;;9.00;99.90;;;;;;4196926;28;20284;-69
2022/10/17 03:54:00;;;;;;;4.57;3.60;;;8.90;99.90;;;;;;4196458;28;20222;-70
2022/10/17 03:56:13;;;;;;;5.33;3.10;;;8.90;99.90;;;;;;4197709;28;20290;-69
2022/10/17 03:58:13;;;;;;;6.63;3.57;;;8.90;99.90;;;;;;4197275;28;20197;-70
2022/10/17 04:00:14;;;;;;;10.70;3.53;;;8.90;99.90;;;;;;4196950;28;20227;-70
2022/10/17 04:02:15;;;;;;;4.57;3.40;;;8.90;99.90;;;;;;4197343;28;20273;-70
2022/10/17 04:04:15;;;;;;;5.97;3.30;;;8.90;99.90;;;;;;4197479;28;20627;-69
2022/10/17 04:06:16;;;;;;;5.73;3.40;;;8.90;99.90;;;;;;4190474;28;20671;-69
2022/10/17 04:08:16;;;;;;;6.97;4.27;;;8.90;99.90;;;;;;4180510;28;20187;-70
2022/10/17 04:10:17;;;;;;;7.43;3.93;;;8.90;99.90;;;;;;4180476;28;20701;-69
2022/10/17 04:12:18;;;;;;;6.53;3.30;;;8.90;99.90;;;;;;4180902;28;20230;-70
2022/10/17 04:14:18;;;;;;;5.20;3.47;;;9.00;99.90;;;;;;4180648;28;20191;-70
2022/10/17 04:16:19;;;;;;;5.17;3.70;;;8.90;99.90;;;;;;4180721;28;20200;-70
2022/10/17 04:18:20;;;;;;;6.23;3.43;;;8.90;99.90;;;;;;4195887;28;20187;-70
2022/10/17 04:20:21;;;;;;;8.83;3.87;;;9.00;99.90;;;;;;4180328;28;20901;-70
2022/10/17 04:22:21;;;;;;;5.10;3.80;;;8.90;99.90;;;;;;4180761;28;20180;-70
2022/10/17 04:24:22;;;;;;;5.07;3.30;;;9.00;99.90;;;;;;4180508;28;20226;-70
2022/10/17 04:26:23;;;;;;;7.17;3.97;;;8.90;99.90;;;;;;4180608;28;20206;-70
2022/10/17 04:28:24;;;;;;;6.30;3.77;;;9.00;99.90;;;;;;4180598;28;20186;-70
2022/10/17 04:30:25;;;;;;;7.80;4.63;;;8.90;99.90;;;;;;4179882;28;20188;-70
2022/10/17 04:32:25;;;;;;;6.13;3.83;;;9.00;99.90;;;;;;4180683;28;20222;-70
2022/10/17 04:34:26;;;;;;;4.87;3.77;;;9.00;99.90;;;;;;4180359;28;20214;-70
2022/10/17 04:36:26;;;;;;;5.23;4.00;;;9.00;99.90;;;;;;4188870;28;20211;-70
2022/10/17 04:38:28;;;;;;;10.37;4.30;;;9.00;99.90;;;;;;4195436;28;20285;-69
2022/10/17 04:40:29;;;;;;;8.47;4.23;;;9.00;99.90;;;;;;4196151;28;20238;-69
2022/10/17 04:42:29;;;;;;;5.67;3.90;;;9.00;99.90;;;;;;4197005;28;20187;-69
2022/10/17 04:44:32;;;;;;;5.43;3.83;;;9.00;99.90;;;;;;4196882;28;20596;-69
2022/10/17 04:46:33;;;;;;;6.43;3.80;;;8.90;99.90;;;;;;4196764;28;20260;-69
2022/10/17 04:48:34;;;;;;;8.00;3.63;;;8.90;99.90;;;;;;4196841;28;20204;-69
2022/10/17 04:50:35;;;;;;;5.27;4.10;;;8.90;99.90;;;;;;4196130;28;20397;-69
2022/10/17 04:52:38;;;;;;;6.53;3.70;;;8.90;99.90;;;;;;4195179;28;20194;-70
2022/10/17 04:54:39;;;;;;;5.10;3.97;;;8.90;99.90;;;;;;4197009;28;20241;-69
2022/10/17 04:56:39;;;;;;;8.10;4.70;;;8.90;99.90;;;;;;4196732;28;20839;-69
2022/10/17 04:58:41;;;;;;;8.90;3.80;;;8.90;99.90;;;;;;4196559;28;20194;-69
2022/10/17 05:00:42;;;;;;;5.27;3.70;;;8.80;99.90;;;;;;4196096;28;20538;-69
2022/10/17 05:02:43;;;;;;;6.10;3.40;;;8.80;99.90;;;;;;4196648;28;20194;-69
2022/10/17 05:04:43;;;;;;;7.40;3.80;;;8.80;99.90;;;;;;4196451;28;20183;-69
2022/10/17 05:06:44;;;;;;;6.07;3.87;;;8.80;99.90;;;;;;4196262;28;20290;-69
2022/10/17 05:08:45;;;;;;;6.50;4.07;;;8.90;99.90;;;;;;4196380;28;20191;-69
2022/10/17 05:10:46;;;;;;;4.77;3.63;;;8.80;99.90;;;;;;4196004;28;20183;-69
2022/10/17 05:12:47;;;;;;;7.37;3.83;;;8.80;99.90;;;;;;4189286;28;20334;-69
2022/10/17 05:14:48;;;;;;;8.13;3.83;;;8.70;99.90;;;;;;4184080;28;20320;-69
2022/10/17 05:16:48;;;;;;;5.23;3.63;;;8.80;99.90;;;;;;4195701;28;20619;-69
2022/10/17 05:18:51;;;;;;;7.07;3.90;;;8.80;99.90;;;;;;4196162;28;20642;-70
2022/10/17 05:20:51;;;;;;;8.03;3.80;;;8.80;99.90;;;;;;4195593;28;20309;-69
2022/10/17 05:22:52;;;;;;;4.47;3.10;;;8.80;99.90;;;;;;4196191;28;20202;-69
2022/10/17 05:24:52;;;;;;;5.03;3.73;;;8.80;99.90;;;;;;4196000;28;20186;-69
2022/10/17 05:26:53;;;;;;;7.13;4.07;;;8.80;99.90;;;;;;4196066;28;20206;-69
2022/10/17 05:28:53;;;;;;;6.37;3.83;;;8.90;99.90;;;;;;4196096;28;20879;-69
2022/10/17 05:30:54;;;;;;;6.10;3.90;;;8.80;99.90;;;;;;4195449;28;20658;-69
2022/10/17 05:32:55;;;;;;;7.17;4.33;;;8.80;99.90;;;;;;4196067;28;20183;-69
2022/10/17 05:34:55;;;;;;;5.00;3.83;;;8.80;99.90;;;;;;4195695;28;20221;-69
2022/10/17 05:36:56;;;;;;;6.17;3.47;;;8.90;99.90;;;;;;4195928;28;20233;-69
2022/10/17 05:38:57;;;;;;;7.57;3.77;;;8.80;99.90;;;;;;4196008;28;20188;-69
2022/10/17 05:40:59;;;;;;;5.10;3.50;;;8.80;99.90;;;;;;4195242;28;20654;-69
2022/10/17 05:42:59;;;;;;;5.57;3.80;;;8.90;99.90;;;;;;4195810;28;20191;-69
2022/10/17 05:45:00;;;;;;;7.30;3.70;;;8.80;99.90;;;;;;4195518;28;20197;-69
2022/10/17 05:47:00;;;;;;;6.00;3.50;;;8.80;99.90;;;;;;4196018;28;20661;-69
2022/10/17 05:49:01;;;;;;;8.77;3.63;;;8.80;99.90;;;;;;4195976;28;20277;-69
2022/10/17 05:51:05;;;;;;;6.40;4.30;;;8.80;99.90;;;;;;4195077;28;20187;-69
2022/10/17 05:53:06;;;;;;;5.43;4.20;;;8.90;99.90;;;;;;4195720;28;20854;-69
2022/10/17 05:55:07;;;;;;;9.07;3.73;;;8.80;99.90;;;;;;4195642;28;20215;-69
2022/10/17 05:57:07;;;;;;;5.23;3.57;;;8.80;99.90;;;;;;4195603;28;20210;-69
2022/10/17 05:59:08;;;;;;;5.27;3.50;;;8.80;99.90;;;;;;4195654;28;20233;-70
2022/10/17 06:01:09;;;;;;;5.97;3.43;;;8.80;99.90;;;;;;4194969;28;20186;-69
2022/10/17 06:03:11;;;;;;;8.63;4.20;;;8.80;99.90;;;;;;4195622;28;20207;-70
2022/10/17 06:05:12;;;;;;;4.93;3.53;;;8.90;99.90;;;;;;4195490;28;20599;-69
2022/10/17 06:07:13;;;;;;;11.63;6.83;;;8.90;99.90;;;;;;4194620;28;20175;-69
2022/10/17 06:09:13;;;;;;;8.40;4.23;;;8.90;99.90;;;;;;4181071;28;20275;-70
2022/10/17 06:11:14;;;;;;;7.70;4.03;;;8.90;99.90;;;;;;4178335;28;20647;-69
2022/10/17 06:13:17;;;;;;;6.03;3.60;;;9.00;99.90;;;;;;4178657;28;20202;-69
2022/10/17 06:15:18;;;;;;;5.17;3.00;;;9.00;99.90;;;;;;4178763;28;20214;-69
2022/10/17 06:17:18;;;;;;;6.23;4.10;;;9.10;99.90;;;;;;4178187;28;20189;-69
2022/10/17 06:19:19;;;;;;;7.67;4.17;;;9.10;99.90;;;;;;4178768;28;20970;-69
2022/10/17 06:21:25;;;;;;;7.07;4.00;;;9.20;99.90;;;;;;4178132;28;20805;-69
2022/10/17 06:23:26;;;;;;;9.07;3.77;;;9.20;99.90;;;;;;4178873;28;20199;-70
2022/10/17 06:25:29;;;;;;;5.07;3.60;;;9.20;99.90;;;;;;4178775;28;20294;-69
2022/10/17 06:27:29;;;;;;;7.10;3.67;;;9.30;99.90;;;;;;4178731;28;20188;-69
2022/10/17 06:29:30;;;;;;;5.90;3.97;;;9.30;99.90;;;;;;4178737;28;20790;-69
2022/10/17 06:31:30;;;;;;;5.83;4.20;;;9.30;99.90;;;;;;4193542;28;20198;-69
2022/10/17 06:33:31;;;;;;;5.40;3.57;;;9.40;99.90;;;;;;4191885;28;20193;-69
2022/10/17 06:35:31;;;;;;;9.80;3.50;;;9.50;99.90;;;;;;4192384;28;20263;-70
2022/10/17 06:37:33;;;;;;;5.37;3.67;;;9.50;99.90;;;;;;4194349;28;20705;-70
2022/10/17 06:39:34;;;;;;;5.27;3.60;;;9.50;99.90;;;;;;4195405;28;20195;-70
2022/10/17 06:41:35;;;;;;;4.43;2.90;;;9.60;99.90;;;;;;4194792;28;20179;-69
2022/10/17 06:43:37;;;;;;;6.93;3.50;;;9.60;99.90;;;;;;4194011;28;20707;-70
2022/10/17 06:45:38;;;;;;;4.30;2.63;;;9.60;99.90;;;;;;4193914;28;20207;-70
2022/10/17 06:47:39;;;;;;;3.60;3.30;;;9.60;99.90;;;;;;4195370;28;20676;-69
2022/10/17 06:49:39;;;;;;;4.53;3.30;;;9.60;99.90;;;;;;4195331;28;20187;-70
2022/10/17 06:51:40;;;;;;;5.47;3.20;;;9.70;99.90;;;;;;4194753;28;20179;-70
2022/10/17 06:53:40;;;;;;;7.03;3.13;;;9.80;99.90;;;;;;4195289;28;20183;-69
2022/10/17 06:55:41;;;;;;;4.60;3.70;;;9.90;99.90;;;;;;4194661;28;20215;-70
2022/10/17 06:57:42;;;;;;;6.53;3.83;;;10.00;99.90;;;;;;4194841;28;20195;-70
2022/10/17 06:59:43;;;;;;;5.27;4.17;;;10.10;99.90;;;;;;4195133;28;20243;-70
2022/10/17 07:01:43;;;;;;;4.17;3.60;;;10.20;99.90;;;;;;4194508;28;20194;-70
2022/10/17 07:03:47;;;;;;;5.30;4.20;;;10.30;99.90;;;;;;4195074;28;20184;-70
2022/10/17 07:05:51;;;;;;;5.33;3.90;;;10.40;99.90;;;;;;4194986;28;20211;-71
2022/10/17 07:07:52;;;;;;;5.53;3.97;;;10.50;99.90;;;;;;4195156;28;20227;-70
2022/10/17 07:09:52;;;;;;;8.93;3.60;;;10.60;99.90;;;;;;4193875;28;20239;-70
2022/10/17 07:11:53;;;;;;;5.87;3.80;;;10.70;99.90;;;;;;4194326;28;20718;-70
2022/10/17 07:13:53;;;;;;;4.93;3.93;;;10.80;99.90;;;;;;4195076;28;20195;-70
2022/10/17 07:16:00;;;;;;;4.50;4.03;;;10.80;99.90;;;;;;4194815;28;20692;-69
2022/10/17 07:18:01;;;;;;;4.60;3.43;;;10.80;99.90;;;;;;4194913;28;20266;-69
2022/10/17 07:20:01;;;;;;;6.80;3.50;;;10.80;99.90;;;;;;4194827;28;20180;-67
2022/10/17 07:22:02;;;;;;;7.07;3.77;;;10.90;99.90;;;;;;4194473;28;20241;-74
2022/10/17 07:24:02;;;;;;;5.17;3.13;;;10.90;99.90;;;;;;4194988;28;20187;-70
2022/10/17 07:26:06;;;;;;;8.10;3.60;;;10.90;99.90;;;;;;4195013;28;20207;-69
2022/10/17 07:28:06;;;;;;;6.80;3.50;;;10.90;99.90;;;;;;4195112;28;20618;-68
2022/10/17 07:30:08;;;;;;;5.57;3.87;;;10.90;99.90;;;;;;4197819;28;20209;-68
2022/10/17 07:32:08;;;;;;;4.63;2.87;;;11.00;99.90;;;;;;4197308;28;20199;-68
2022/10/17 07:34:09;;;;;;;3.90;3.27;;;11.10;99.90;;;;;;4197653;28;20646;-68
2022/10/17 07:36:10;;;;;;;4.03;2.90;;;11.20;99.90;;;;;;4197958;28;20218;-68
2022/10/17 07:38:11;;;;;;;5.40;2.90;;;11.30;99.90;;;;;;4197670;28;20547;-68
2022/10/17 07:40:12;;;;;;;2.97;2.40;;;11.50;99.90;;;;;;4197179;28;20266;-68
2022/10/17 07:42:13;;;;;;;4.87;2.80;;;11.50;99.90;;;;;;4197598;28;20257;-68
2022/10/17 07:44:14;;;;;;;4.00;2.63;;;11.50;99.90;;;;;;4197558;28;20651;-68
2022/10/17 07:46:14;;;;;;;3.87;2.70;;;11.50;99.90;;;;;;4197640;28;20203;-68
2022/10/17 07:48:15;;;;;;;3.80;2.50;;;11.60;99.90;;;;;;4197758;28;20172;-68
2022/10/17 07:50:15;;;;;;;4.53;2.80;;;11.70;99.90;;;;;;4196849;28;20183;-68
2022/10/17 07:52:17;;;;;;;7.63;3.50;;;11.80;99.90;;;;;;4197610;28;20191;-68
2022/10/17 07:54:18;;;;;;;3.00;2.53;;;11.90;99.90;;;;;;4197572;28;20804;-68
2022/10/17 07:56:20;;;;;;;3.07;2.40;;;12.00;99.90;;;;;;4197726;28;20199;-68
2022/10/17 07:58:20;;;;;;;4.37;2.40;;;12.20;99.90;;;;;;4197586;28;20654;-68
2022/10/17 08:00:21;;;;;;;2.73;2.30;;;12.40;99.90;;;;;;4196824;28;20175;-68
2022/10/17 08:02:25;;;;;;;4.03;3.47;;;12.40;99.90;;;;;;4197644;28;20180;-68
2022/10/17 08:04:27;;;;;;;4.03;3.50;;;12.70;99.90;;;;;;4197407;28;20650;-68
2022/10/17 08:06:27;;;;;;;3.50;2.47;;;13.00;99.90;;;;;;4197246;28;20204;-68
2022/10/17 08:08:28;;;;;;;4.90;2.90;;;13.00;99.90;;;;;;4197389;28;20601;-68
2022/10/17 08:10:29;;;;;;;3.33;2.43;;;13.00;99.90;;;;;;4196564;28;20184;-68
2022/10/17 08:12:33;;;;;;;4.53;2.30;;;13.30;99.90;;;;;;4197078;28;20202;-68
2022/10/17 08:14:33;;;;;;;6.00;2.50;;;13.30;99.90;;;;;;4197164;28;20667;-68
2022/10/17 08:16:34;;;;;;;2.10;1.70;;;13.50;99.90;;;;;;4195341;28;20204;-68
2022/10/17 08:18:35;;;;;;;2.13;1.90;;;13.70;99.90;;;;;;4181888;28;20191;-68
2022/10/17 08:20:36;;;;;;;2.33;1.73;;;14.00;99.90;;;;;;4179892;28;20173;-68
2022/10/17 08:22:36;;;;;;;3.27;1.97;;;14.30;99.90;;;;;;4180493;28;20750;-68
2022/10/17 08:24:37;;;;;;;2.90;1.83;;;14.40;99.90;;;;;;4180660;28;20554;-68
2022/10/17 08:26:38;;;;;;;2.83;2.00;;;14.50;99.90;;;;;;4180233;28;20196;-68
2022/10/17 08:28:39;;;;;;;2.07;1.87;;;14.70;99.90;;;;;;4180523;28;20187;-67
2022/10/17 08:30:40;;;;;;;3.40;2.30;;;15.10;99.90;;;;;;4179775;28;20181;-67
2022/10/17 08:32:41;;;;;;;2.87;1.90;;;15.30;99.90;;;;;;4180035;28;20188;-68
2022/10/17 08:34:41;;;;;;;2.80;2.17;;;15.50;99.90;;;;;;4180404;28;20211;-68
2022/10/17 08:36:42;;;;;;;2.93;1.93;;;15.60;99.90;;;;;;4180183;28;20200;-68
2022/10/17 08:38:44;;;;;;;3.30;2.20;;;15.80;99.90;;;;;;4180303;28;20182;-68
2022/10/17 08:40:48;;;;;;;3.23;1.97;;;15.90;99.90;;;;;;4177701;28;20184;-68
2022/10/17 08:43:13;;;;;;;3.17;1.80;;;16.00;99.90;;;;;;4180150;28;20234;-68
2022/10/17 08:45:37;;;;;;;4.13;2.00;;;16.40;99.90;;;;;;4180188;28;20192;-67
2022/10/17 08:47:43;;;;;;;2.07;1.87;;;16.50;99.90;;;;;;4179066;28;20169;-67
2022/10/17 08:49:58;;;;;;;2.70;2.27;;;16.70;99.90;;;;;;4178847;28;20663;-68
2022/10/17 08:52:12;;;;;;;4.17;2.20;;;16.80;99.90;;;;;;4178297;28;20164;-67
2022/10/17 08:54:23;;;;;;;4.73;2.53;;;16.70;99.90;;;;;;4188252;28;20176;-67
2022/10/17 08:56:32;;;;;;;3.10;2.20;;;16.80;99.90;;;;;;4195218;28;20206;-67
2022/10/17 08:58:36;;;;;;;5.97;2.50;;;17.20;99.90;;;;;;4195217;28;20191;-68
2022/10/17 09:00:38;;;;;;;3.30;1.93;;;17.50;99.90;;;;;;4194469;28;20172;-68
2022/10/17 09:02:48;;;;;;;3.60;2.33;;;17.90;99.90;;;;;;4195041;28;20179;-68
2022/10/17 09:05:20;;;;;;;2.80;2.00;;;17.90;99.90;;;;;;4196246;28;20255;-67
2022/10/17 09:07:47;;;;;;;3.30;2.20;;;17.90;99.90;;;;;;4196553;28;20179;-68
2022/10/17 09:10:18;;;;;;;2.83;1.93;;;18.60;99.90;;;;;;4195073;28;20167;-68
2022/10/17 09:12:40;;;;;;;4.00;2.07;;;19.10;99.90;;;;;;4194810;28;20186;-68
2022/10/17 09:14:56;;;;;;;4.00;2.07;;;19.50;99.20;;;;;;4194724;28;20714;-68
2022/10/17 09:17:27;;;;;;;2.83;2.20;;;19.80;98.40;;;;;;4196481;28;20250;-68
2022/10/17 09:19:38;;;;;;;2.43;1.70;;;20.20;97.60;;;;;;4195002;28;20892;-68
2022/10/17 09:22:18;;;;;;;4.03;1.80;;;20.60;97.70;;;;;;4194137;28;20654;-67
2022/10/17 09:25:02;;;;;;;1.97;1.40;;;20.90;97.80;;;;;;4193909;28;20191;-68
2022/10/17 09:27:05;;;;;;;2.40;1.67;;;21.50;96.00;;;;;;4194408;28;20199;-68
2022/10/17 09:29:23;;;;;;;2.60;1.50;;;22.00;94.20;;;;;;4196223;28;20307;-68
2022/10/17 09:31:45;;;;;;;2.40;1.57;;;22.40;84.30;;;;;;4194148;28;20573;-68
2022/10/17 09:33:50;;;;;;;2.80;1.43;;;22.90;83.10;;;;;;4194783;28;20542;-68
2022/10/17 09:35:51;;;;;;;5.83;1.70;;;22.90;71.20;;;;;;4194636;28;20215;-68
2022/10/17 09:37:52;;;;;;;2.97;1.80;;;23.40;68.30;;;;;;4194568;28;20257;-68
2022/10/17 09:39:53;;;;;;;1.83;1.67;;;23.90;68.60;;;;;;4194547;28;20198;-68
2022/10/17 09:41:57;;;;;;;3.03;1.70;;;24.00;68.00;;;;;;4193942;28;20714;-68
2022/10/17 09:44:11;;;;;;;6.90;1.80;;;24.10;62.10;;;;;;4194585;28;20207;-68
2022/10/17 09:46:37;;;;;;;4.90;1.70;;;24.30;58.60;;;;;;4177921;28;20291;-68
2022/10/17 09:49:20;;;;;;;2.60;1.33;;;25.10;54.60;;;;;;4194524;28;20195;-68
2022/10/17 09:51:22;;;;;;;2.33;1.90;;;24.30;53.20;;;;;;4192481;28;20306;-68
2022/10/17 09:53:36;;;;;;;6.00;1.83;;;23.10;57.30;;;;;;4186218;28;21001;-68
2022/10/17 09:55:44;;;;;;;3.13;1.40;;;23.20;50.80;;;;;;4194317;28;20294;-68
2022/10/17 09:57:55;;;;;;;2.70;1.57;;;24.00;47.60;;;;;;4195637;28;20258;-68
2022/10/17 10:00:05;;;;;;;4.03;1.80;;;25.10;45.70;;;;;;4195852;28;20183;-68
2022/10/17 10:02:22;;;;;;;3.27;1.57;;;25.20;44.80;;;;;;4195044;28;20715;-68
2022/10/17 10:04:24;;;;;;;4.33;1.60;;;25.40;45.40;;;;;;4194396;28;20160;-68
2022/10/17 10:06:25;;;;;;;1.97;1.40;;;25.40;44.00;;;;;;4195530;28;20260;-68
2022/10/17 10:08:36;;;;;;;7.47;1.67;;;24.90;44.40;;;;;;4195459;28;20635;-68
2022/10/17 10:10:41;;;;;;;4.20;1.80;;;24.20;40.90;;;;;;4193741;28;20634;-68
2022/10/17 10:13:08;;;;;;;2.10;1.53;;;23.80;45.30;;;;;;4195398;28;20195;-68
2022/10/17 10:15:46;;;;;;;4.50;1.40;;;23.20;43.50;;;;;;4195326;28;20204;-68
2022/10/17 10:17:46;;;;;;;4.03;1.57;;;23.40;42.80;;;;;;4193339;28;20221;-68
2022/10/17 10:19:51;;;;;;;4.30;1.40;;;23.60;43.20;;;;;;4194503;28;20195;-67
2022/10/17 10:22:04;;;;;;;3.50;1.43;;;24.00;41.30;;;;;;4194795;28;20273;-67
2022/10/17 10:24:08;;;;;;;4.87;1.93;;;24.30;39.40;;;;;;4194064;28;20209;-68
2022/10/17 10:26:26;;;;;;;2.17;1.40;;;24.50;38.70;;;;;;4194704;28;20253;-68
2022/10/17 10:28:33;;;;;;;3.60;1.70;;;24.60;38.20;;;;;;4193996;28;20562;-67
2022/10/17 10:30:34;;;;;;;4.07;2.07;;;25.30;37.20;;;;;;4193504;28;20191;-68
2022/10/17 10:32:36;;;;;;;7.90;1.60;;;25.80;36.90;;;;;;4178775;28;20188;-68
2022/10/17 10:34:48;;;;;;;4.77;1.77;;;25.80;35.80;;;;;;4178666;28;20239;-67
2022/10/17 10:37:05;;;;;;;3.27;1.40;;;25.40;36.50;;;;;;4177617;28;20211;-68
2022/10/17 10:39:22;;;;;;;2.87;1.30;;;26.00;36.10;;;;;;4177480;28;20541;-68
2022/10/17 10:41:26;;;;;;;3.40;1.83;;;26.80;34.20;;;;;;4177956;28;20225;-67
2022/10/17 10:43:42;;;;;;;3.30;1.20;;;26.80;34.10;;;;;;4178632;28;20177;-67
2022/10/17 10:45:43;;;;;;;2.07;1.50;;;26.80;33.80;;;;;;4193773;28;20594;-67
2022/10/17 10:47:59;;;;;;;3.53;1.50;;;27.00;33.40;;;;;;4189662;28;20187;-68
2022/10/17 10:50:28;;;;;;;4.87;1.63;;;27.40;32.40;;;;;;4193867;28;20183;-68
2022/10/17 10:52:40;;;;;;;3.17;1.80;;;27.20;33.60;;;;;;4193895;28;20254;-68
2022/10/17 10:54:53;;;;;;;1.80;1.40;;;27.80;31.90;;;;;;4193825;28;20208;-68
2022/10/17 10:56:57;;;;;;;1.77;1.23;;;27.20;33.10;;;;;;4193644;28;20587;-68
2022/10/17 10:59:05;;;;;;;5.50;1.63;;;27.20;32.40;;;;;;4193797;28;20225;-67